createdAt,value
2022-12-23T00:00:41.816Z,12.03
2022-12-23T00:02:50.922Z,12.33
2022-12-23T00:04:59.676Z,11.07
2022-12-23T00:07:08.556Z,14.63
2022-12-23T00:09:17.740Z,11.93
2022-12-23T00:11:28.875Z,13.87
2022-12-23T00:13:55.554Z,10.30
2022-12-23T00:16:05.491Z,14.83
2022-12-23T00:18:14.524Z,13.87
2022-12-23T00:20:23.447Z,14.67
2022-12-23T00:22:49.629Z,14.63
2022-12-23T00:24:58.690Z,12.90
2022-12-23T00:27:09.206Z,11.83
2022-12-23T00:29:18.237Z,14.77
2022-12-23T00:31:27.736Z,13.50
2022-12-23T00:33:37.492Z,13.30
2022-12-23T00:35:46.787Z,11.40
2022-12-23T00:37:56.316Z,12.00
2022-12-23T00:40:22.540Z,15.07
2022-12-23T00:42:51.896Z,10.90
2022-12-23T00:45:16.235Z,12.13
2022-12-23T00:47:42.897Z,13.23
2022-12-23T00:49:51.750Z,9.73
2022-12-23T00:52:00.937Z,14.40
2022-12-23T00:54:10.304Z,11.90
2022-12-23T00:56:19.502Z,15.37
2022-12-23T00:58:29.817Z,11.57
2022-12-23T01:00:56.169Z,14.70
2022-12-23T01:03:22.249Z,11.87
2022-12-23T01:05:40.062Z,12.40
2022-12-23T01:07:49.148Z,10.50
2022-12-23T01:09:58.183Z,12.97
2022-12-23T01:12:07.355Z,11.17
2022-12-23T01:14:17.871Z,18.13
2022-12-23T01:16:27.039Z,13.53
2022-12-23T01:18:36.465Z,11.73
2022-12-23T01:20:45.478Z,11.60
2022-12-23T01:22:54.616Z,12.83
2022-12-23T01:25:03.564Z,12.93
2022-12-23T01:27:12.351Z,11.87
2022-12-23T01:29:23.428Z,14.60
2022-12-23T01:31:32.976Z,10.93
2022-12-23T01:33:42.035Z,18.27
2022-12-23T01:35:50.769Z,12.50
2022-12-23T01:37:59.668Z,11.47
2022-12-23T01:40:10.036Z,13.97
2022-12-23T01:42:37.400Z,14.57
2022-12-23T01:45:04.572Z,15.70
2022-12-23T01:47:16.373Z,13.53
2022-12-23T01:49:25.456Z,11.33
2022-12-23T01:51:34.389Z,14.23
2022-12-23T01:53:46.024Z,12.20
2022-12-23T01:55:57.388Z,12.60
2022-12-23T01:58:10.225Z,9.73
2022-12-23T02:00:39.195Z,10.30
2022-12-23T02:03:06.575Z,13.13
2022-12-23T02:05:15.946Z,11.47
2022-12-23T02:07:42.281Z,10.70
2022-12-23T02:09:51.017Z,9.63
2022-12-23T02:12:17.785Z,7.53
2022-12-23T02:15:00.053Z,9.57
2022-12-23T02:17:12.373Z,7.00
2022-12-23T02:19:29.859Z,6.67
2022-12-23T02:21:44.227Z,6.93
2022-12-23T02:24:07.399Z,7.67
2022-12-23T02:26:27.634Z,9.27
2022-12-23T02:28:48.581Z,10.23
2022-12-23T02:31:01.717Z,7.60
2022-12-23T02:33:27.606Z,9.70
2022-12-23T02:35:40.826Z,7.43
2022-12-23T02:37:55.372Z,10.53
2022-12-23T02:40:07.013Z,10.13
2022-12-23T02:42:17.891Z,9.07
2022-12-23T02:44:31.739Z,13.47
2022-12-23T02:46:45.066Z,10.23
2022-12-23T02:48:56.761Z,8.60
2022-12-23T02:51:07.660Z,13.03
2022-12-23T02:53:18.333Z,7.50
2022-12-23T02:55:31.228Z,9.90
2022-12-23T02:57:42.705Z,10.47
2022-12-23T02:59:52.683Z,11.63
2022-12-23T03:02:03.435Z,16.93
2022-12-23T03:04:12.440Z,8.97
2022-12-23T03:06:23.702Z,8.90
2022-12-23T03:08:34.592Z,10.10
2022-12-23T03:10:48.744Z,12.33
2022-12-23T03:13:02.144Z,11.00
2022-12-23T03:15:19.650Z,13.63
2022-12-23T03:17:43.174Z,12.60
2022-12-23T03:19:56.691Z,11.47
2022-12-23T03:22:10.613Z,11.40
2022-12-23T03:24:24.167Z,10.20
2022-12-23T03:26:36.856Z,12.50
2022-12-23T03:28:47.109Z,17.13
2022-12-23T03:30:59.894Z,17.83
2022-12-23T03:33:12.689Z,13.43
2022-12-23T03:35:26.265Z,11.50
2022-12-23T03:37:36.749Z,12.60
2022-12-23T03:39:48.151Z,7.70
2022-12-23T03:42:00.540Z,8.00
2022-12-23T03:44:12.128Z,10.07
2022-12-23T03:46:22.667Z,8.33
2022-12-23T03:48:34.845Z,5.53
2022-12-23T03:50:46.386Z,4.37
2022-12-23T03:52:58.356Z,3.33
2022-12-23T03:55:09.032Z,3.03
2022-12-23T03:57:18.266Z,3.00
2022-12-23T03:59:29.525Z,3.93
2022-12-23T04:01:43.671Z,1.97
2022-12-23T04:03:57.055Z,1.93
2022-12-23T04:06:09.884Z,1.77
2022-12-23T04:08:20.263Z,1.53
2022-12-23T04:10:29.741Z,1.30
2022-12-23T04:12:39.305Z,0.90
2022-12-23T04:14:50.002Z,1.77
2022-12-23T04:17:00.636Z,0.90
2022-12-23T04:19:09.492Z,0.60
2022-12-23T04:21:19.679Z,1.00
2022-12-23T04:23:28.743Z,0.80
2022-12-23T04:25:37.773Z,0.63
2022-12-23T04:27:46.841Z,0.53
2022-12-23T04:29:55.998Z,0.30
2022-12-23T04:32:04.976Z,0.67
2022-12-23T04:34:13.941Z,0.47
2022-12-23T04:36:24.791Z,1.83
2022-12-23T04:38:34.004Z,0.20
2022-12-23T04:40:42.876Z,0.20
2022-12-23T04:42:51.694Z,0.30
2022-12-23T04:45:00.743Z,0.13
2022-12-23T04:47:09.732Z,0.43
2022-12-23T04:49:18.852Z,0.30
2022-12-23T04:51:29.376Z,0.17
2022-12-23T04:53:38.076Z,0.23
2022-12-23T04:55:46.867Z,0.20
2022-12-23T04:57:55.802Z,0.20
2022-12-23T05:00:04.874Z,0.30
2022-12-23T05:02:13.991Z,0.20
2022-12-23T05:04:23.107Z,0.20
2022-12-23T05:06:34.368Z,0.20
2022-12-23T05:08:43.115Z,0.10
2022-12-23T05:10:52.147Z,0.10
2022-12-23T05:13:00.654Z,0.10
2022-12-23T05:15:09.764Z,0.13
2022-12-23T05:17:18.507Z,0.13
2022-12-23T05:19:27.255Z,0.10
2022-12-23T05:21:38.002Z,0.20
2022-12-23T05:23:46.820Z,0.20
2022-12-23T05:25:56.103Z,0.10
2022-12-23T05:28:05.092Z,0.10
2022-12-23T05:30:14.285Z,0.20
2022-12-23T05:32:24.312Z,0.17
2022-12-23T05:34:33.004Z,0.10
2022-12-23T05:36:43.406Z,0.10
2022-12-23T05:38:52.095Z,0.10
2022-12-23T05:41:01.087Z,0.10
2022-12-23T05:43:10.418Z,0.97
2022-12-23T05:45:19.301Z,0.30
2022-12-23T05:47:28.468Z,0.40
2022-12-23T05:49:37.149Z,0.10
2022-12-23T05:51:47.215Z,0.30
2022-12-23T05:53:55.989Z,0.20
2022-12-23T05:56:06.299Z,0.40
2022-12-23T05:58:15.376Z,0.30
2022-12-23T06:00:24.231Z,0.63
2022-12-23T06:02:33.690Z,0.20
2022-12-23T06:04:42.699Z,0.17
2022-12-23T06:06:52.755Z,0.13
2022-12-23T06:09:01.583Z,0.17
2022-12-23T06:11:10.434Z,0.20
2022-12-23T06:13:19.405Z,0.30
2022-12-23T06:15:28.477Z,0.17
2022-12-23T06:17:37.520Z,0.33
2022-12-23T06:19:47.623Z,0.20
2022-12-23T06:21:58.829Z,0.20
2022-12-23T06:24:07.953Z,1.03
2022-12-23T06:26:16.528Z,0.30
2022-12-23T06:28:25.223Z,0.30
2022-12-23T06:30:34.089Z,0.20
2022-12-23T06:32:43.033Z,0.30
2022-12-23T06:34:53.502Z,0.53
2022-12-23T06:37:04.240Z,0.20
2022-12-23T06:39:13.395Z,0.63
2022-12-23T06:41:22.430Z,0.47
2022-12-23T06:43:31.040Z,0.30
2022-12-23T06:45:40.000Z,0.60
2022-12-23T06:47:48.980Z,2.43
2022-12-23T06:49:58.085Z,0.30
2022-12-23T06:52:08.813Z,0.30
2022-12-23T06:54:17.632Z,0.70
2022-12-23T06:56:26.398Z,0.17
2022-12-23T06:58:35.338Z,0.43
2022-12-23T07:00:44.097Z,0.30
2022-12-23T07:02:55.456Z,0.63
2022-12-23T07:05:04.819Z,0.20
2022-12-23T07:07:15.531Z,0.33
2022-12-23T07:09:24.682Z,0.30
2022-12-23T07:11:33.710Z,0.30
2022-12-23T07:13:42.585Z,0.40
2022-12-23T07:15:51.544Z,0.37
2022-12-23T07:18:01.465Z,0.30
2022-12-23T07:20:10.591Z,0.30
2022-12-23T07:22:21.501Z,0.30
2022-12-23T07:24:30.511Z,0.30
2022-12-23T07:26:40.049Z,0.30
2022-12-23T07:28:49.177Z,0.37
2022-12-23T07:30:57.803Z,0.27
2022-12-23T07:33:06.587Z,0.70
2022-12-23T07:35:15.473Z,0.40
2022-12-23T07:37:25.833Z,0.50
2022-12-23T07:39:34.635Z,0.70
2022-12-23T07:41:43.750Z,1.03
2022-12-23T07:43:52.469Z,0.97
2022-12-23T07:46:01.429Z,0.70
2022-12-23T07:48:10.707Z,0.43
2022-12-23T07:50:19.857Z,0.50
2022-12-23T07:52:30.975Z,0.60
2022-12-23T07:54:40.335Z,0.60
2022-12-23T07:56:49.166Z,0.60
2022-12-23T07:58:58.551Z,0.90
2022-12-23T08:01:09.462Z,0.50
2022-12-23T08:03:18.502Z,0.30
2022-12-23T08:05:28.166Z,0.43
2022-12-23T08:07:38.626Z,1.43
2022-12-23T08:09:47.205Z,1.70
2022-12-23T08:11:56.134Z,0.90
2022-12-23T08:14:05.277Z,0.73
2022-12-23T08:16:14.502Z,0.80
2022-12-23T08:18:23.286Z,1.00
2022-12-23T08:20:32.365Z,0.87
2022-12-23T08:22:43.112Z,0.40
2022-12-23T08:24:52.706Z,0.80
2022-12-23T08:27:01.649Z,2.33
2022-12-23T08:29:10.660Z,1.57
2022-12-23T08:31:21.942Z,0.70
2022-12-23T08:33:30.601Z,0.87
2022-12-23T08:35:39.283Z,0.60
2022-12-23T08:37:51.692Z,0.80
2022-12-23T08:40:00.868Z,0.77
2022-12-23T08:42:09.986Z,0.77
2022-12-23T08:44:19.201Z,0.63
2022-12-23T08:46:28.122Z,1.03
2022-12-23T08:48:37.287Z,0.77
2022-12-23T08:50:47.183Z,0.80
2022-12-23T08:52:58.084Z,1.23
2022-12-23T08:55:07.400Z,1.03
2022-12-23T08:57:16.301Z,0.83
2022-12-23T08:59:25.221Z,1.20
2022-12-23T09:01:35.825Z,1.03
2022-12-23T09:03:45.292Z,1.33
2022-12-23T09:05:54.172Z,1.27
2022-12-23T09:08:04.605Z,1.83
2022-12-23T09:10:13.895Z,1.23
2022-12-23T09:12:22.623Z,0.97
2022-12-23T09:14:31.822Z,0.70
2022-12-23T09:16:40.987Z,1.53
2022-12-23T09:18:49.859Z,1.80
2022-12-23T09:21:00.193Z,1.30
2022-12-23T09:23:11.331Z,0.80
2022-12-23T09:25:20.197Z,0.93
2022-12-23T09:27:29.221Z,1.10
2022-12-23T09:29:38.102Z,3.00
2022-12-23T09:31:47.326Z,1.53
2022-12-23T09:33:56.394Z,2.80
2022-12-23T09:36:06.113Z,1.67
2022-12-23T09:38:16.296Z,2.67
2022-12-23T09:40:25.517Z,1.97
2022-12-23T09:42:45.988Z,2.27
2022-12-23T09:45:05.086Z,2.03
2022-12-23T09:47:17.010Z,1.73
2022-12-23T09:49:26.230Z,1.30
2022-12-23T09:51:36.499Z,1.37
2022-12-23T09:53:51.829Z,1.40
2022-12-23T09:56:07.103Z,2.00
2022-12-23T09:58:21.856Z,1.63
2022-12-23T10:00:32.192Z,1.73
2022-12-23T10:02:44.902Z,1.30
2022-12-23T10:04:58.836Z,1.13
2022-12-23T10:07:15.576Z,1.40
2022-12-23T10:09:27.110Z,1.43
2022-12-23T10:11:38.627Z,0.80
2022-12-23T10:13:49.049Z,0.80
2022-12-23T10:16:00.351Z,0.97
2022-12-23T10:18:12.603Z,1.23
2022-12-23T10:20:23.230Z,1.43
2022-12-23T10:22:35.576Z,1.07
2022-12-23T10:24:47.526Z,1.90
2022-12-23T10:26:57.361Z,1.47
2022-12-23T10:29:15.461Z,1.17
2022-12-23T10:31:40.253Z,1.13
2022-12-23T10:33:56.347Z,2.53
2022-12-23T10:36:07.451Z,1.93
2022-12-23T10:38:27.207Z,1.70
2022-12-23T10:40:46.206Z,2.03
2022-12-23T10:42:59.504Z,0.87
2022-12-23T10:45:20.723Z,1.57
2022-12-23T10:47:35.512Z,1.37
2022-12-23T10:49:49.855Z,1.30
2022-12-23T10:52:00.004Z,3.10
2022-12-23T10:54:12.156Z,2.63
2022-12-23T10:56:22.926Z,2.53
2022-12-23T10:58:31.962Z,2.30
2022-12-23T11:00:42.382Z,0.80
2022-12-23T11:02:56.788Z,0.70
2022-12-23T11:05:05.697Z,2.47
2022-12-23T11:07:43.399Z,1.57
2022-12-23T11:09:46.756Z,1.47
2022-12-23T11:12:01.111Z,2.40
2022-12-23T11:14:30.964Z,1.33
2022-12-23T11:16:47.109Z,1.77
2022-12-23T11:18:59.378Z,1.33
2022-12-23T11:21:09.103Z,0.47
2022-12-23T11:23:25.924Z,2.73
2022-12-23T11:25:36.754Z,1.30
2022-12-23T11:27:47.956Z,2.77
2022-12-23T11:29:57.279Z,1.40
2022-12-23T11:32:17.794Z,1.70
2022-12-23T11:34:27.781Z,2.30
2022-12-23T11:36:37.146Z,1.00
2022-12-23T11:38:50.626Z,1.03
2022-12-23T11:40:59.908Z,1.63
2022-12-23T11:43:17.713Z,1.37
2022-12-23T11:45:28.890Z,1.53
2022-12-23T11:47:39.874Z,1.30
2022-12-23T11:49:50.437Z,1.80
2022-12-23T11:52:03.118Z,2.77
2022-12-23T11:54:16.992Z,1.57
2022-12-23T11:56:26.043Z,2.97
2022-12-23T11:58:42.388Z,1.50
2022-12-23T12:00:56.884Z,1.20
2022-12-23T12:03:06.730Z,2.90
2022-12-23T12:05:21.515Z,2.73
2022-12-23T12:07:31.169Z,0.93
2022-12-23T12:09:42.021Z,1.97
2022-12-23T12:11:51.569Z,1.80
2022-12-23T12:14:05.098Z,1.70
2022-12-23T12:16:18.989Z,2.47
2022-12-23T12:18:28.935Z,1.73
2022-12-23T12:20:38.909Z,2.50
2022-12-23T12:22:50.182Z,3.07
2022-12-23T12:25:00.829Z,1.93
2022-12-23T12:27:10.351Z,1.63
2022-12-23T12:29:23.147Z,1.77
2022-12-23T12:31:33.728Z,1.83
2022-12-23T12:33:46.137Z,2.10
2022-12-23T12:36:03.344Z,1.30
2022-12-23T12:38:18.553Z,1.33
2022-12-23T12:40:30.724Z,3.50
2022-12-23T12:42:42.251Z,1.93
2022-12-23T12:44:57.706Z,1.63
2022-12-23T12:47:36.180Z,3.53
2022-12-23T12:49:43.561Z,3.17
2022-12-23T12:51:57.219Z,2.67
2022-12-23T12:54:09.130Z,2.03
2022-12-23T12:56:21.455Z,2.40
2022-12-23T12:58:31.365Z,3.30
2022-12-23T13:00:49.003Z,4.17
2022-12-23T13:03:20.408Z,6.47
2022-12-23T13:05:36.266Z,2.23
2022-12-23T13:07:51.144Z,3.33
2022-12-23T13:10:02.858Z,2.43
2022-12-23T13:12:16.014Z,6.90
2022-12-23T13:14:30.035Z,4.07
2022-12-23T13:16:46.002Z,5.23
2022-12-23T13:18:57.758Z,5.07
2022-12-23T13:21:10.529Z,3.67
2022-12-23T13:23:42.752Z,6.10
2022-12-23T13:25:54.423Z,2.97
2022-12-23T13:28:08.272Z,1.53
2022-12-23T13:30:18.129Z,1.17
2022-12-23T13:32:43.471Z,2.60
2022-12-23T13:34:56.038Z,3.57
2022-12-23T13:37:12.779Z,2.10
2022-12-23T13:39:32.792Z,2.80
2022-12-23T13:41:43.432Z,4.13
2022-12-23T13:43:56.205Z,3.37
2022-12-23T13:46:06.173Z,2.60
2022-12-23T13:48:27.544Z,1.60
2022-12-23T13:50:39.262Z,3.30
2022-12-23T13:52:58.005Z,2.13
2022-12-23T13:55:14.298Z,4.77
2022-12-23T13:57:30.049Z,5.57
2022-12-23T13:59:42.672Z,3.67
2022-12-23T14:01:54.564Z,3.00
2022-12-23T14:04:18.005Z,4.13
2022-12-23T14:06:41.799Z,3.30
2022-12-23T14:08:53.584Z,3.47
2022-12-23T14:11:03.875Z,2.37
2022-12-23T14:13:19.272Z,2.13
2022-12-23T14:15:50.408Z,0.97
2022-12-23T14:18:06.761Z,3.40
2022-12-23T14:20:23.845Z,5.47
2022-12-23T14:22:40.902Z,7.60
2022-12-23T14:25:12.224Z,4.67
2022-12-23T14:27:33.720Z,3.30
2022-12-23T14:29:51.413Z,2.30
2022-12-23T14:32:00.746Z,1.37
2022-12-23T14:34:26.771Z,0.67
2022-12-23T14:36:35.666Z,6.13
2022-12-23T14:38:44.590Z,4.57
2022-12-23T14:40:57.402Z,5.07
2022-12-23T14:43:25.618Z,2.13
2022-12-23T14:45:37.211Z,1.20
2022-12-23T14:47:46.619Z,4.60
2022-12-23T14:49:55.375Z,7.30
2022-12-23T14:52:22.677Z,6.93
2022-12-23T14:54:50.166Z,8.20
2022-12-23T14:57:18.475Z,9.50
2022-12-23T14:59:32.865Z,5.20
2022-12-23T15:01:42.919Z,4.27
2022-12-23T15:03:59.242Z,4.57
2022-12-23T15:06:10.651Z,9.40
2022-12-23T15:08:28.039Z,5.27
2022-12-23T15:10:39.725Z,3.73
2022-12-23T15:12:51.793Z,3.70
2022-12-23T15:15:02.323Z,4.90
2022-12-23T15:17:18.771Z,3.10
2022-12-23T15:19:29.710Z,2.37
2022-12-23T15:21:38.566Z,7.50
2022-12-23T15:23:50.753Z,3.47
2022-12-23T15:26:01.403Z,3.03
2022-12-23T15:28:18.084Z,5.03
2022-12-23T15:30:28.666Z,4.03
2022-12-23T15:32:37.791Z,2.53
2022-12-23T15:34:47.011Z,3.17
2022-12-23T15:36:55.923Z,2.73
2022-12-23T15:39:06.261Z,2.93
2022-12-23T15:41:16.710Z,2.47
2022-12-23T15:43:27.436Z,3.67
2022-12-23T15:45:37.304Z,5.40
2022-12-23T15:47:46.346Z,3.10
2022-12-23T15:49:55.319Z,3.17
2022-12-23T15:52:11.155Z,1.90
2022-12-23T15:54:25.279Z,2.30
2022-12-23T15:56:36.706Z,3.40
2022-12-23T15:58:48.161Z,2.90
2022-12-23T16:00:59.228Z,3.97
2022-12-23T16:03:15.459Z,3.17
2022-12-23T16:05:26.805Z,8.17
2022-12-23T16:07:36.945Z,3.97
2022-12-23T16:09:45.958Z,4.17
2022-12-23T16:11:57.319Z,2.77
2022-12-23T16:14:21.270Z,5.20
2022-12-23T16:16:34.724Z,2.80
2022-12-23T16:18:47.681Z,4.87
2022-12-23T16:20:58.213Z,2.40
2022-12-23T16:23:06.937Z,2.37
2022-12-23T16:25:20.094Z,2.47
2022-12-23T16:27:34.641Z,10.70
2022-12-23T16:29:43.697Z,8.17
2022-12-23T16:32:01.643Z,4.53
2022-12-23T16:34:14.269Z,6.33
2022-12-23T16:36:24.931Z,3.97
2022-12-23T16:38:34.070Z,2.63
2022-12-23T16:40:43.782Z,3.70
2022-12-23T16:42:52.362Z,4.73
2022-12-23T16:45:01.851Z,2.37
2022-12-23T16:47:17.444Z,4.17
2022-12-23T16:49:33.487Z,6.43
2022-12-23T16:51:43.088Z,4.00
2022-12-23T16:53:53.090Z,2.20
2022-12-23T16:56:02.529Z,1.87
2022-12-23T16:58:11.755Z,3.40
2022-12-23T17:00:21.084Z,1.77
2022-12-23T17:02:34.589Z,3.57
2022-12-23T17:04:43.551Z,2.13
2022-12-23T17:06:52.586Z,2.20
2022-12-23T17:09:01.611Z,2.83
2022-12-23T17:11:15.028Z,2.63
2022-12-23T17:13:23.829Z,1.90
2022-12-23T17:15:32.479Z,3.70
2022-12-23T17:17:42.765Z,4.50
2022-12-23T17:19:51.796Z,4.27
2022-12-23T17:22:02.203Z,4.63
2022-12-23T17:24:13.354Z,3.23
2022-12-23T17:26:22.651Z,5.33
2022-12-23T17:28:33.236Z,4.10
2022-12-23T17:30:42.996Z,4.70
2022-12-23T17:32:54.862Z,3.00
2022-12-23T17:35:04.196Z,3.40
2022-12-23T17:37:15.466Z,3.90
2022-12-23T17:39:24.492Z,2.73
2022-12-23T17:41:34.569Z,6.70
2022-12-23T17:43:43.307Z,4.23
2022-12-23T17:45:52.378Z,2.30
2022-12-23T17:48:03.307Z,7.07
2022-12-23T17:50:12.847Z,3.40
2022-12-23T17:52:22.637Z,12.67
2022-12-23T17:54:31.142Z,10.30
2022-12-23T17:56:40.303Z,7.97
2022-12-23T17:58:50.224Z,6.97
2022-12-23T18:00:59.386Z,4.23
2022-12-23T18:03:19.588Z,7.73
2022-12-23T18:05:29.125Z,1.63
2022-12-23T18:07:38.551Z,2.03
2022-12-23T18:09:48.051Z,3.03
2022-12-23T18:11:56.770Z,2.80
2022-12-23T18:14:06.095Z,5.80
2022-12-23T18:16:15.646Z,4.30
2022-12-23T18:18:35.600Z,2.80
2022-12-23T18:20:54.644Z,2.03
2022-12-23T18:23:03.502Z,3.60
2022-12-23T18:25:16.165Z,4.70
2022-12-23T18:27:26.221Z,6.50
2022-12-23T18:29:34.964Z,6.50
2022-12-23T18:31:51.454Z,7.13
2022-12-23T18:34:02.442Z,1.83
2022-12-23T18:36:15.004Z,3.30
2022-12-23T18:38:25.046Z,4.70
2022-12-23T18:40:34.203Z,6.33
2022-12-23T18:42:43.120Z,4.97
2022-12-23T18:44:52.153Z,2.83
2022-12-23T18:47:00.993Z,3.17
2022-12-23T18:49:11.371Z,4.83
2022-12-23T18:51:22.340Z,4.03
2022-12-23T18:53:31.933Z,2.67
2022-12-23T18:55:40.915Z,2.43
2022-12-23T18:57:49.919Z,5.53
2022-12-23T18:59:58.847Z,7.03
2022-12-23T19:02:08.715Z,4.13
2022-12-23T19:04:19.166Z,3.93
2022-12-23T19:06:28.034Z,3.70
2022-12-23T19:08:37.527Z,7.60
2022-12-23T19:10:47.485Z,6.67
2022-12-23T19:12:56.777Z,7.13
2022-12-23T19:15:06.060Z,6.90
2022-12-23T19:17:15.203Z,2.33
2022-12-23T19:19:25.857Z,3.10
2022-12-23T19:21:35.113Z,5.97
2022-12-23T19:23:44.375Z,12.20
2022-12-23T19:25:55.557Z,3.50
2022-12-23T19:28:04.810Z,6.93
2022-12-23T19:30:15.830Z,4.40
2022-12-23T19:32:24.624Z,5.93
2022-12-23T19:34:35.376Z,3.33
2022-12-23T19:36:44.240Z,4.90
2022-12-23T19:38:53.679Z,4.33
2022-12-23T19:41:02.576Z,3.93
2022-12-23T19:43:11.776Z,3.13
2022-12-23T19:45:20.563Z,2.97
2022-12-23T19:47:29.714Z,4.17
2022-12-23T19:49:40.189Z,4.17
2022-12-23T19:51:49.045Z,3.20
2022-12-23T19:53:58.006Z,4.50
2022-12-23T19:56:08.463Z,6.10
2022-12-23T19:58:18.959Z,8.20
2022-12-23T20:00:28.002Z,5.70
2022-12-23T20:02:37.274Z,4.97
2022-12-23T20:04:48.137Z,3.93
2022-12-23T20:06:57.473Z,5.73
2022-12-23T20:09:06.721Z,7.07
2022-12-23T20:11:17.253Z,5.10
2022-12-23T20:13:26.200Z,6.23
2022-12-23T20:15:35.514Z,4.70
2022-12-23T20:17:44.520Z,4.63
2022-12-23T20:19:55.003Z,3.37
2022-12-23T20:22:04.055Z,4.77
2022-12-23T20:24:13.237Z,4.57
2022-12-23T20:26:24.271Z,3.37
2022-12-23T20:28:33.689Z,4.87
2022-12-23T20:30:42.737Z,7.03
2022-12-23T20:32:51.729Z,8.67
2022-12-23T20:35:01.980Z,5.07
2022-12-23T20:37:12.179Z,4.00
2022-12-23T20:39:21.676Z,3.47
2022-12-23T20:41:31.590Z,5.13
2022-12-23T20:43:40.731Z,3.97
2022-12-23T20:45:52.525Z,5.03
2022-12-23T20:48:01.444Z,5.43
2022-12-23T20:50:13.339Z,5.60
2022-12-23T20:52:22.347Z,5.40
2022-12-23T20:54:33.727Z,5.70
2022-12-23T20:56:42.804Z,8.73
2022-12-23T20:58:59.092Z,4.13
2022-12-23T21:01:11.805Z,5.20
2022-12-23T21:03:21.255Z,4.30
2022-12-23T21:05:31.840Z,3.20
2022-12-23T21:07:40.657Z,4.17
2022-12-23T21:09:49.777Z,4.60
2022-12-23T21:11:58.251Z,3.63
2022-12-23T21:14:07.950Z,3.17
2022-12-23T21:16:17.525Z,5.23
2022-12-23T21:18:27.178Z,4.20
2022-12-23T21:20:38.650Z,4.17
2022-12-23T21:22:48.396Z,3.43
2022-12-23T21:24:57.416Z,4.23
2022-12-23T21:27:06.703Z,4.33
2022-12-23T21:29:15.980Z,4.40
2022-12-23T21:31:25.877Z,3.10
2022-12-23T21:33:36.878Z,3.77
2022-12-23T21:35:47.657Z,3.87
2022-12-23T21:37:56.412Z,5.23
2022-12-23T21:40:05.318Z,4.37
2022-12-23T21:42:14.105Z,10.37
2022-12-23T21:44:23.044Z,6.73
2022-12-23T21:46:33.028Z,7.60
2022-12-23T21:48:42.274Z,5.67
2022-12-23T21:50:52.736Z,6.20
2022-12-23T21:53:01.674Z,3.40
2022-12-23T21:55:15.917Z,4.80
2022-12-23T21:57:24.752Z,6.60
2022-12-23T21:59:35.364Z,3.77
2022-12-23T22:01:45.291Z,2.33
2022-12-23T22:03:54.722Z,4.47
2022-12-23T22:06:10.629Z,5.13
2022-12-23T22:08:19.594Z,3.33
2022-12-23T22:10:28.601Z,3.23
2022-12-23T22:12:37.637Z,4.53
2022-12-23T22:14:46.780Z,2.37
2022-12-23T22:16:55.910Z,2.73
2022-12-23T22:19:05.323Z,2.17
2022-12-23T22:21:16.898Z,1.70
2022-12-23T22:23:25.975Z,1.87
2022-12-23T22:25:35.081Z,1.90
2022-12-23T22:27:44.212Z,4.00
2022-12-23T22:29:53.036Z,4.13
2022-12-23T22:32:02.257Z,3.60
2022-12-23T22:34:14.124Z,3.53
2022-12-23T22:36:24.854Z,4.43
2022-12-23T22:38:33.629Z,3.70
2022-12-23T22:40:42.402Z,3.83
2022-12-23T22:42:51.133Z,6.07
2022-12-23T22:45:00.269Z,3.27
2022-12-23T22:47:10.650Z,4.50
2022-12-23T22:49:19.786Z,3.83
2022-12-23T22:51:31.353Z,2.83
2022-12-23T22:53:40.531Z,1.30
2022-12-23T22:55:58.713Z,1.77
2022-12-23T22:58:07.683Z,1.00
2022-12-23T23:00:16.784Z,6.13
2022-12-23T23:02:26.226Z,1.93
2022-12-23T23:04:35.453Z,2.53
2022-12-23T23:06:48.507Z,2.20
2022-12-23T23:08:58.396Z,1.47
2022-12-23T23:11:07.500Z,2.60
2022-12-23T23:13:16.914Z,7.17
2022-12-23T23:15:26.477Z,5.47
2022-12-23T23:17:35.471Z,1.60
2022-12-23T23:19:44.416Z,3.60
2022-12-23T23:21:55.745Z,1.30
2022-12-23T23:24:05.558Z,0.97
2022-12-23T23:26:14.503Z,1.83
2022-12-23T23:28:23.460Z,2.70
2022-12-23T23:30:32.458Z,2.57
2022-12-23T23:32:42.088Z,2.17
2022-12-23T23:34:50.672Z,2.23
2022-12-23T23:37:01.682Z,2.57
2022-12-23T23:39:11.103Z,5.43
2022-12-23T23:41:23.372Z,1.73
2022-12-23T23:43:33.781Z,1.10
2022-12-23T23:45:42.549Z,1.47
2022-12-23T23:47:51.156Z,1.07
2022-12-23T23:49:59.842Z,1.63
2022-12-23T23:52:10.207Z,1.27
2022-12-23T23:54:19.389Z,1.30
2022-12-23T23:56:33.842Z,3.47
2022-12-23T23:58:47.356Z,1.90
